sensor_id;sensor_type;location;lat;lon;timestamp;temperature;humidity
12053;DHT22;6087;48.982;12.064;2023-08-01T00:01:00;18.50;70.80
12053;DHT22;6087;48.982;12.064;2023-08-01T00:03:29;18.50;69.20
12053;DHT22;6087;48.982;12.064;2023-08-01T00:05:55;18.50;68.40
12053;DHT22;6087;48.982;12.064;2023-08-01T00:08:22;18.50;69.00
12053;DHT22;6087;48.982;12.064;2023-08-01T00:10:49;18.60;70.70
12053;DHT22;6087;48.982;12.064;2023-08-01T00:13:16;18.60;69.00
12053;DHT22;6087;48.982;12.064;2023-08-01T00:15:43;18.60;70.70
12053;DHT22;6087;48.982;12.064;2023-08-01T00:18:10;18.60;71.00
12053;DHT22;6087;48.982;12.064;2023-08-01T00:20:38;18.60;71.50
12053;DHT22;6087;48.982;12.064;2023-08-01T00:23:06;18.50;73.30
12053;DHT22;6087;48.982;12.064;2023-08-01T00:25:33;18.50;74.00
12053;DHT22;6087;48.982;12.064;2023-08-01T00:28:00;18.50;73.30
12053;DHT22;6087;48.982;12.064;2023-08-01T00:30:27;18.50;72.90
12053;DHT22;6087;48.982;12.064;2023-08-01T00:32:54;18.40;73.70
12053;DHT22;6087;48.982;12.064;2023-08-01T00:35:21;18.40;74.00
12053;DHT22;6087;48.982;12.064;2023-08-01T00:37:49;18.30;78.20
12053;DHT22;6087;48.982;12.064;2023-08-01T00:40:16;18.30;75.70
12053;DHT22;6087;48.982;12.064;2023-08-01T00:42:43;18.30;77.10
12053;DHT22;6087;48.982;12.064;2023-08-01T00:45:14;18.30;79.80
12053;DHT22;6087;48.982;12.064;2023-08-01T00:47:41;18.20;79.00
12053;DHT22;6087;48.982;12.064;2023-08-01T00:50:08;18.20;79.20
12053;DHT22;6087;48.982;12.064;2023-08-01T00:52:35;18.20;78.70
12053;DHT22;6087;48.982;12.064;2023-08-01T00:55:05;18.20;80.10
12053;DHT22;6087;48.982;12.064;2023-08-01T00:57:33;18.20;79.90
12053;DHT22;6087;48.982;12.064;2023-08-01T01:00:00;18.20;80.00
12053;DHT22;6087;48.982;12.064;2023-08-01T01:02:27;18.20;81.00
12053;DHT22;6087;48.982;12.064;2023-08-01T01:04:54;18.20;81.90
12053;DHT22;6087;48.982;12.064;2023-08-01T01:07:22;18.20;82.70
12053;DHT22;6087;48.982;12.064;2023-08-01T01:09:50;18.10;83.70
12053;DHT22;6087;48.982;12.064;2023-08-01T01:12:19;18.10;84.20
12053;DHT22;6087;48.982;12.064;2023-08-01T01:14:45;18.10;84.30
12053;DHT22;6087;48.982;12.064;2023-08-01T01:17:12;18.10;82.30
12053;DHT22;6087;48.982;12.064;2023-08-01T01:19:39;18.10;84.90
12053;DHT22;6087;48.982;12.064;2023-08-01T01:22:09;18.10;85.50
12053;DHT22;6087;48.982;12.064;2023-08-01T01:24:37;18.10;87.30
12053;DHT22;6087;48.982;12.064;2023-08-01T01:27:05;18.10;83.80
12053;DHT22;6087;48.982;12.064;2023-08-01T01:29:33;18.10;85.20
12053;DHT22;6087;48.982;12.064;2023-08-01T01:32:00;18.10;88.20
12053;DHT22;6087;48.982;12.064;2023-08-01T01:34:28;18.00;87.30
12053;DHT22;6087;48.982;12.064;2023-08-01T01:36:55;18.00;86.90
12053;DHT22;6087;48.982;12.064;2023-08-01T01:39:23;18.00;87.10
12053;DHT22;6087;48.982;12.064;2023-08-01T01:41:50;18.00;88.20
12053;DHT22;6087;48.982;12.064;2023-08-01T01:44:17;17.90;86.90
12053;DHT22;6087;48.982;12.064;2023-08-01T01:46:44;17.90;87.10
12053;DHT22;6087;48.982;12.064;2023-08-01T01:49:10;17.90;87.80
12053;DHT22;6087;48.982;12.064;2023-08-01T01:51:37;17.90;86.30
12053;DHT22;6087;48.982;12.064;2023-08-01T01:54:09;18.00;88.30
12053;DHT22;6087;48.982;12.064;2023-08-01T01:56:38;17.90;87.60
12053;DHT22;6087;48.982;12.064;2023-08-01T01:59:04;17.90;87.90
12053;DHT22;6087;48.982;12.064;2023-08-01T02:01:31;18.00;88.80
12053;DHT22;6087;48.982;12.064;2023-08-01T02:03:58;17.90;89.50
12053;DHT22;6087;48.982;12.064;2023-08-01T02:06:25;17.90;88.20
12053;DHT22;6087;48.982;12.064;2023-08-01T02:08:52;17.90;90.00
12053;DHT22;6087;48.982;12.064;2023-08-01T02:11:18;17.90;89.90
12053;DHT22;6087;48.982;12.064;2023-08-01T02:13:47;17.90;90.10
12053;DHT22;6087;48.982;12.064;2023-08-01T02:16:13;17.90;91.90
12053;DHT22;6087;48.982;12.064;2023-08-01T02:18:40;17.90;92.30
12053;DHT22;6087;48.982;12.064;2023-08-01T02:21:07;17.80;92.60
12053;DHT22;6087;48.982;12.064;2023-08-01T02:23:34;17.80;91.80
12053;DHT22;6087;48.982;12.064;2023-08-01T02:26:03;17.90;91.80
12053;DHT22;6087;48.982;12.064;2023-08-01T02:28:29;17.90;91.70
12053;DHT22;6087;48.982;12.064;2023-08-01T02:30:58;17.80;91.20
12053;DHT22;6087;48.982;12.064;2023-08-01T02:33:24;17.80;91.00
12053;DHT22;6087;48.982;12.064;2023-08-01T02:35:51;17.80;90.50
12053;DHT22;6087;48.982;12.064;2023-08-01T02:38:18;17.80;88.70
12053;DHT22;6087;48.982;12.064;2023-08-01T02:40:55;17.90;86.50
12053;DHT22;6087;48.982;12.064;2023-08-01T02:43:22;17.90;84.30
12053;DHT22;6087;48.982;12.064;2023-08-01T02:45:49;17.90;84.30
12053;DHT22;6087;48.982;12.064;2023-08-01T02:48:17;17.90;85.60
12053;DHT22;6087;48.982;12.064;2023-08-01T02:50:45;17.90;86.10
12053;DHT22;6087;48.982;12.064;2023-08-01T02:53:12;17.90;83.90
12053;DHT22;6087;48.982;12.064;2023-08-01T02:55:39;17.90;86.40
12053;DHT22;6087;48.982;12.064;2023-08-01T02:58:05;18.00;85.00
12053;DHT22;6087;48.982;12.064;2023-08-01T03:00:37;18.00;85.90
12053;DHT22;6087;48.982;12.064;2023-08-01T03:03:05;18.00;87.70
12053;DHT22;6087;48.982;12.064;2023-08-01T03:05:37;18.10;89.60
12053;DHT22;6087;48.982;12.064;2023-08-01T03:08:04;18.10;90.70
12053;DHT22;6087;48.982;12.064;2023-08-01T03:10:31;18.10;91.10
12053;DHT22;6087;48.982;12.064;2023-08-01T03:12:58;18.10;92.00
12053;DHT22;6087;48.982;12.064;2023-08-01T03:15:24;18.10;92.80
12053;DHT22;6087;48.982;12.064;2023-08-01T03:17:52;18.10;93.10
12053;DHT22;6087;48.982;12.064;2023-08-01T03:20:18;18.10;93.40
12053;DHT22;6087;48.982;12.064;2023-08-01T03:22:47;18.10;93.70
12053;DHT22;6087;48.982;12.064;2023-08-01T03:25:14;18.00;93.20
12053;DHT22;6087;48.982;12.064;2023-08-01T03:27:41;18.10;94.30
12053;DHT22;6087;48.982;12.064;2023-08-01T03:30:08;18.00;93.50
12053;DHT22;6087;48.982;12.064;2023-08-01T03:32:35;18.10;93.50
12053;DHT22;6087;48.982;12.064;2023-08-01T03:35:03;18.10;94.30
12053;DHT22;6087;48.982;12.064;2023-08-01T03:37:30;18.10;94.00
12053;DHT22;6087;48.982;12.064;2023-08-01T03:39:58;18.10;94.40
12053;DHT22;6087;48.982;12.064;2023-08-01T03:42:25;18.00;93.90
12053;DHT22;6087;48.982;12.064;2023-08-01T03:44:58;18.10;94.40
12053;DHT22;6087;48.982;12.064;2023-08-01T03:47:24;18.00;93.80
12053;DHT22;6087;48.982;12.064;2023-08-01T03:49:51;18.00;95.80
12053;DHT22;6087;48.982;12.064;2023-08-01T03:52:18;18.00;95.60
12053;DHT22;6087;48.982;12.064;2023-08-01T03:54:46;18.00;97.10
12053;DHT22;6087;48.982;12.064;2023-08-01T03:57:14;18.00;96.20
12053;DHT22;6087;48.982;12.064;2023-08-01T03:59:44;18.00;97.50
12053;DHT22;6087;48.982;12.064;2023-08-01T04:02:12;17.90;96.60
12053;DHT22;6087;48.982;12.064;2023-08-01T04:04:39;17.90;96.80
12053;DHT22;6087;48.982;12.064;2023-08-01T04:07:06;17.80;98.30
12053;DHT22;6087;48.982;12.064;2023-08-01T04:09:34;17.90;98.10
12053;DHT22;6087;48.982;12.064;2023-08-01T04:12:00;17.90;97.60
12053;DHT22;6087;48.982;12.064;2023-08-01T04:14:29;17.80;99.90
12053;DHT22;6087;48.982;12.064;2023-08-01T04:16:56;17.80;99.90
12053;DHT22;6087;48.982;12.064;2023-08-01T04:19:22;17.70;99.90
12053;DHT22;6087;48.982;12.064;2023-08-01T04:21:50;17.60;98.50
12053;DHT22;6087;48.982;12.064;2023-08-01T04:24:31;17.40;99.40
12053;DHT22;6087;48.982;12.064;2023-08-01T04:27:00;17.30;99.90
12053;DHT22;6087;48.982;12.064;2023-08-01T04:29:28;17.20;99.90
12053;DHT22;6087;48.982;12.064;2023-08-01T04:31:56;17.00;99.90
12053;DHT22;6087;48.982;12.064;2023-08-01T04:34:23;17.00;99.90
12053;DHT22;6087;48.982;12.064;2023-08-01T04:36:50;16.90;99.90
12053;DHT22;6087;48.982;12.064;2023-08-01T04:39:17;16.90;99.90
12053;DHT22;6087;48.982;12.064;2023-08-01T04:41:44;16.90;99.90
12053;DHT22;6087;48.982;12.064;2023-08-01T04:44:20;16.80;99.90
12053;DHT22;6087;48.982;12.064;2023-08-01T04:46:49;16.80;99.90
12053;DHT22;6087;48.982;12.064;2023-08-01T04:49:16;16.70;99.90
12053;DHT22;6087;48.982;12.064;2023-08-01T04:51:42;16.70;99.90
12053;DHT22;6087;48.982;12.064;2023-08-01T04:54:09;16.60;99.90
12053;DHT22;6087;48.982;12.064;2023-08-01T04:56:36;16.50;99.90
12053;DHT22;6087;48.982;12.064;2023-08-01T04:59:03;16.40;99.90
12053;DHT22;6087;48.982;12.064;2023-08-01T05:01:30;16.40;99.90
12053;DHT22;6087;48.982;12.064;2023-08-01T05:03:58;16.40;99.90
12053;DHT22;6087;48.982;12.064;2023-08-01T05:06:25;16.30;99.90
12053;DHT22;6087;48.982;12.064;2023-08-01T05:08:53;16.30;99.90
12053;DHT22;6087;48.982;12.064;2023-08-01T05:11:20;16.30;99.90
12053;DHT22;6087;48.982;12.064;2023-08-01T05:13:48;16.30;99.90
12053;DHT22;6087;48.982;12.064;2023-08-01T05:16:15;16.20;99.90
12053;DHT22;6087;48.982;12.064;2023-08-01T05:18:41;16.20;99.90
12053;DHT22;6087;48.982;12.064;2023-08-01T05:21:10;16.20;99.90
12053;DHT22;6087;48.982;12.064;2023-08-01T05:23:37;16.20;99.90
12053;DHT22;6087;48.982;12.064;2023-08-01T05:26:04;16.10;99.90
12053;DHT22;6087;48.982;12.064;2023-08-01T05:28:30;16.00;99.90
12053;DHT22;6087;48.982;12.064;2023-08-01T05:30:57;16.10;99.90
12053;DHT22;6087;48.982;12.064;2023-08-01T05:33:24;16.10;99.90
12053;DHT22;6087;48.982;12.064;2023-08-01T05:35:51;16.10;99.90
12053;DHT22;6087;48.982;12.064;2023-08-01T05:38:19;16.10;99.90
12053;DHT22;6087;48.982;12.064;2023-08-01T05:40:46;16.10;99.90
12053;DHT22;6087;48.982;12.064;2023-08-01T05:43:13;16.10;99.90
12053;DHT22;6087;48.982;12.064;2023-08-01T05:45:40;16.10;99.90
12053;DHT22;6087;48.982;12.064;2023-08-01T05:48:07;16.10;99.90
12053;DHT22;6087;48.982;12.064;2023-08-01T05:50:33;16.00;99.90
12053;DHT22;6087;48.982;12.064;2023-08-01T05:53:00;16.00;99.90
12053;DHT22;6087;48.982;12.064;2023-08-01T05:55:29;16.10;99.90
12053;DHT22;6087;48.982;12.064;2023-08-01T05:57:56;16.00;99.90
12053;DHT22;6087;48.982;12.064;2023-08-01T06:00:22;16.10;99.90
12053;DHT22;6087;48.982;12.064;2023-08-01T06:02:49;16.00;99.90
12053;DHT22;6087;48.982;12.064;2023-08-01T06:05:16;16.10;99.90
12053;DHT22;6087;48.982;12.064;2023-08-01T06:07:43;16.10;99.90
12053;DHT22;6087;48.982;12.064;2023-08-01T06:10:10;16.10;99.90
12053;DHT22;6087;48.982;12.064;2023-08-01T06:12:38;16.10;99.90
12053;DHT22;6087;48.982;12.064;2023-08-01T06:15:06;16.10;99.90
12053;DHT22;6087;48.982;12.064;2023-08-01T06:17:33;16.10;99.90
12053;DHT22;6087;48.982;12.064;2023-08-01T06:19:59;16.20;99.90
12053;DHT22;6087;48.982;12.064;2023-08-01T06:22:29;16.20;99.90
12053;DHT22;6087;48.982;12.064;2023-08-01T06:24:56;16.20;99.90
12053;DHT22;6087;48.982;12.064;2023-08-01T06:27:24;16.20;99.90
12053;DHT22;6087;48.982;12.064;2023-08-01T06:29:52;16.20;99.90
12053;DHT22;6087;48.982;12.064;2023-08-01T06:32:19;16.30;99.90
12053;DHT22;6087;48.982;12.064;2023-08-01T06:34:46;16.20;99.90
12053;DHT22;6087;48.982;12.064;2023-08-01T06:37:13;16.30;99.90
12053;DHT22;6087;48.982;12.064;2023-08-01T06:39:46;16.30;99.90
12053;DHT22;6087;48.982;12.064;2023-08-01T06:42:13;16.30;99.90
12053;DHT22;6087;48.982;12.064;2023-08-01T06:44:41;16.40;99.90
12053;DHT22;6087;48.982;12.064;2023-08-01T06:47:17;16.40;99.90
12053;DHT22;6087;48.982;12.064;2023-08-01T06:49:44;16.40;99.90
12053;DHT22;6087;48.982;12.064;2023-08-01T06:52:11;16.40;99.90
12053;DHT22;6087;48.982;12.064;2023-08-01T06:54:45;16.40;99.90
12053;DHT22;6087;48.982;12.064;2023-08-01T06:57:12;16.40;99.90
12053;DHT22;6087;48.982;12.064;2023-08-01T06:59:39;16.40;99.90
12053;DHT22;6087;48.982;12.064;2023-08-01T07:02:06;16.40;99.90
12053;DHT22;6087;48.982;12.064;2023-08-01T07:04:35;16.40;99.90
12053;DHT22;6087;48.982;12.064;2023-08-01T07:07:03;16.40;99.90
12053;DHT22;6087;48.982;12.064;2023-08-01T07:09:30;16.50;99.90
12053;DHT22;6087;48.982;12.064;2023-08-01T07:11:57;16.50;99.90
12053;DHT22;6087;48.982;12.064;2023-08-01T07:14:24;16.50;99.90
12053;DHT22;6087;48.982;12.064;2023-08-01T07:16:51;16.50;99.90
12053;DHT22;6087;48.982;12.064;2023-08-01T07:19:18;16.60;99.90
12053;DHT22;6087;48.982;12.064;2023-08-01T07:21:46;16.60;99.90
12053;DHT22;6087;48.982;12.064;2023-08-01T07:24:14;16.70;99.90
12053;DHT22;6087;48.982;12.064;2023-08-01T07:26:41;16.80;99.90
12053;DHT22;6087;48.982;12.064;2023-08-01T07:29:08;16.80;99.90
12053;DHT22;6087;48.982;12.064;2023-08-01T07:31:37;16.80;99.90
12053;DHT22;6087;48.982;12.064;2023-08-01T07:34:04;16.90;99.90
12053;DHT22;6087;48.982;12.064;2023-08-01T07:36:30;16.90;99.90
12053;DHT22;6087;48.982;12.064;2023-08-01T07:38:59;16.90;99.90
12053;DHT22;6087;48.982;12.064;2023-08-01T07:41:26;17.00;99.90
12053;DHT22;6087;48.982;12.064;2023-08-01T07:43:53;17.10;99.90
12053;DHT22;6087;48.982;12.064;2023-08-01T07:46:19;17.10;99.90
12053;DHT22;6087;48.982;12.064;2023-08-01T07:48:46;17.20;99.90
12053;DHT22;6087;48.982;12.064;2023-08-01T07:51:23;17.20;99.90
12053;DHT22;6087;48.982;12.064;2023-08-01T07:53:51;17.40;99.90
12053;DHT22;6087;48.982;12.064;2023-08-01T07:56:20;17.40;99.90
12053;DHT22;6087;48.982;12.064;2023-08-01T07:58:47;17.50;99.90
12053;DHT22;6087;48.982;12.064;2023-08-01T08:01:16;17.50;99.90
12053;DHT22;6087;48.982;12.064;2023-08-01T08:03:43;17.60;99.90
12053;DHT22;6087;48.982;12.064;2023-08-01T08:06:10;17.70;99.90
12053;DHT22;6087;48.982;12.064;2023-08-01T08:08:36;17.70;99.90
12053;DHT22;6087;48.982;12.064;2023-08-01T08:11:03;17.80;99.90
12053;DHT22;6087;48.982;12.064;2023-08-01T08:13:39;17.80;99.90
12053;DHT22;6087;48.982;12.064;2023-08-01T08:16:06;17.80;99.90
12053;DHT22;6087;48.982;12.064;2023-08-01T08:18:33;17.90;99.90
12053;DHT22;6087;48.982;12.064;2023-08-01T08:21:00;17.90;99.90
12053;DHT22;6087;48.982;12.064;2023-08-01T08:23:28;17.90;99.90
12053;DHT22;6087;48.982;12.064;2023-08-01T08:25:55;17.90;99.90
12053;DHT22;6087;48.982;12.064;2023-08-01T08:28:28;17.90;99.90
12053;DHT22;6087;48.982;12.064;2023-08-01T08:30:57;17.90;99.90
12053;DHT22;6087;48.982;12.064;2023-08-01T08:33:34;17.80;99.90
12053;DHT22;6087;48.982;12.064;2023-08-01T08:36:01;17.80;99.90
12053;DHT22;6087;48.982;12.064;2023-08-01T08:38:31;17.80;99.90
12053;DHT22;6087;48.982;12.064;2023-08-01T08:41:09;17.80;99.90
12053;DHT22;6087;48.982;12.064;2023-08-01T08:43:37;17.80;99.90
12053;DHT22;6087;48.982;12.064;2023-08-01T08:46:05;17.70;99.90
12053;DHT22;6087;48.982;12.064;2023-08-01T08:48:34;17.80;99.90
12053;DHT22;6087;48.982;12.064;2023-08-01T08:51:02;17.80;99.90
12053;DHT22;6087;48.982;12.064;2023-08-01T08:53:31;17.80;99.90
12053;DHT22;6087;48.982;12.064;2023-08-01T08:55:59;17.80;99.90
12053;DHT22;6087;48.982;12.064;2023-08-01T08:58:28;17.90;99.90
12053;DHT22;6087;48.982;12.064;2023-08-01T09:00:55;17.90;99.90
12053;DHT22;6087;48.982;12.064;2023-08-01T09:03:29;17.80;99.90
12053;DHT22;6087;48.982;12.064;2023-08-01T09:06:02;17.90;99.90
12053;DHT22;6087;48.982;12.064;2023-08-01T09:08:32;17.90;99.90
12053;DHT22;6087;48.982;12.064;2023-08-01T09:11:04;18.00;99.90
12053;DHT22;6087;48.982;12.064;2023-08-01T09:13:32;18.00;99.90
12053;DHT22;6087;48.982;12.064;2023-08-01T09:16:00;18.00;99.90
12053;DHT22;6087;48.982;12.064;2023-08-01T09:18:29;18.10;99.90
12053;DHT22;6087;48.982;12.064;2023-08-01T09:20:56;18.10;99.90
12053;DHT22;6087;48.982;12.064;2023-08-01T09:23:30;18.10;99.90
12053;DHT22;6087;48.982;12.064;2023-08-01T09:25:57;18.00;99.90
12053;DHT22;6087;48.982;12.064;2023-08-01T09:28:27;18.00;99.90
12053;DHT22;6087;48.982;12.064;2023-08-01T09:30:55;17.90;99.90
12053;DHT22;6087;48.982;12.064;2023-08-01T09:33:23;17.80;99.90
12053;DHT22;6087;48.982;12.064;2023-08-01T09:35:52;17.80;99.90
12053;DHT22;6087;48.982;12.064;2023-08-01T09:38:19;17.70;99.90
12053;DHT22;6087;48.982;12.064;2023-08-01T09:40:46;17.70;99.90
12053;DHT22;6087;48.982;12.064;2023-08-01T09:43:13;17.70;99.90
12053;DHT22;6087;48.982;12.064;2023-08-01T09:45:50;17.70;99.90
12053;DHT22;6087;48.982;12.064;2023-08-01T09:48:24;17.60;99.90
12053;DHT22;6087;48.982;12.064;2023-08-01T09:51:04;17.50;99.90
12053;DHT22;6087;48.982;12.064;2023-08-01T09:53:31;17.30;99.90
12053;DHT22;6087;48.982;12.064;2023-08-01T09:56:00;17.20;99.90
12053;DHT22;6087;48.982;12.064;2023-08-01T09:58:32;17.20;99.90
12053;DHT22;6087;48.982;12.064;2023-08-01T10:00:59;17.10;99.90
12053;DHT22;6087;48.982;12.064;2023-08-01T10:03:27;17.10;99.90
12053;DHT22;6087;48.982;12.064;2023-08-01T10:05:57;17.00;99.90
12053;DHT22;6087;48.982;12.064;2023-08-01T10:08:25;17.00;99.90
12053;DHT22;6087;48.982;12.064;2023-08-01T10:10:53;16.90;99.90
12053;DHT22;6087;48.982;12.064;2023-08-01T10:13:23;17.00;99.90
12053;DHT22;6087;48.982;12.064;2023-08-01T10:15:51;16.90;99.90
12053;DHT22;6087;48.982;12.064;2023-08-01T10:18:18;16.80;99.90
12053;DHT22;6087;48.982;12.064;2023-08-01T10:20:45;16.70;99.90
12053;DHT22;6087;48.982;12.064;2023-08-01T10:23:15;16.70;99.90
12053;DHT22;6087;48.982;12.064;2023-08-01T10:25:43;16.70;99.90
12053;DHT22;6087;48.982;12.064;2023-08-01T10:28:10;16.70;99.90
12053;DHT22;6087;48.982;12.064;2023-08-01T10:30:37;16.70;99.90
12053;DHT22;6087;48.982;12.064;2023-08-01T10:33:04;16.60;99.90
12053;DHT22;6087;48.982;12.064;2023-08-01T10:35:35;16.50;99.90
12053;DHT22;6087;48.982;12.064;2023-08-01T10:38:06;16.60;99.90
12053;DHT22;6087;48.982;12.064;2023-08-01T10:40:36;16.60;99.90
12053;DHT22;6087;48.982;12.064;2023-08-01T10:43:03;16.50;99.90
12053;DHT22;6087;48.982;12.064;2023-08-01T10:45:30;16.60;99.90
12053;DHT22;6087;48.982;12.064;2023-08-01T10:48:07;16.60;99.90
12053;DHT22;6087;48.982;12.064;2023-08-01T10:50:34;16.60;99.90
12053;DHT22;6087;48.982;12.064;2023-08-01T10:53:05;16.60;99.90
12053;DHT22;6087;48.982;12.064;2023-08-01T10:55:45;16.60;99.90
12053;DHT22;6087;48.982;12.064;2023-08-01T10:58:12;16.60;99.90
12053;DHT22;6087;48.982;12.064;2023-08-01T11:00:39;16.60;99.90
12053;DHT22;6087;48.982;12.064;2023-08-01T11:03:06;16.70;99.90
12053;DHT22;6087;48.982;12.064;2023-08-01T11:05:33;16.60;99.90
12053;DHT22;6087;48.982;12.064;2023-08-01T11:08:02;16.70;99.90
12053;DHT22;6087;48.982;12.064;2023-08-01T11:10:30;16.70;99.90
12053;DHT22;6087;48.982;12.064;2023-08-01T11:13:04;16.80;99.90
12053;DHT22;6087;48.982;12.064;2023-08-01T11:15:31;16.80;99.90
12053;DHT22;6087;48.982;12.064;2023-08-01T11:17:58;16.80;99.90
12053;DHT22;6087;48.982;12.064;2023-08-01T11:20:25;16.80;99.90
12053;DHT22;6087;48.982;12.064;2023-08-01T11:22:55;16.80;99.90
12053;DHT22;6087;48.982;12.064;2023-08-01T11:25:36;16.80;99.90
12053;DHT22;6087;48.982;12.064;2023-08-01T11:28:05;16.80;99.90
12053;DHT22;6087;48.982;12.064;2023-08-01T11:30:33;16.80;99.90
12053;DHT22;6087;48.982;12.064;2023-08-01T11:33:01;16.80;99.90
12053;DHT22;6087;48.982;12.064;2023-08-01T11:35:28;16.70;99.90
12053;DHT22;6087;48.982;12.064;2023-08-01T11:37:57;16.70;99.90
12053;DHT22;6087;48.982;12.064;2023-08-01T11:40:25;16.70;99.90
12053;DHT22;6087;48.982;12.064;2023-08-01T11:42:56;16.70;99.90
12053;DHT22;6087;48.982;12.064;2023-08-01T11:45:25;16.70;99.90
12053;DHT22;6087;48.982;12.064;2023-08-01T11:47:52;16.70;99.90
12053;DHT22;6087;48.982;12.064;2023-08-01T11:50:23;16.70;99.90
12053;DHT22;6087;48.982;12.064;2023-08-01T11:52:50;16.70;99.90
12053;DHT22;6087;48.982;12.064;2023-08-01T11:55:24;16.70;99.90
12053;DHT22;6087;48.982;12.064;2023-08-01T11:57:56;16.80;99.90
12053;DHT22;6087;48.982;12.064;2023-08-01T12:00:26;16.90;99.90
12053;DHT22;6087;48.982;12.064;2023-08-01T12:03:03;16.90;99.90
12053;DHT22;6087;48.982;12.064;2023-08-01T12:05:30;17.00;99.90
12053;DHT22;6087;48.982;12.064;2023-08-01T12:08:08;17.00;99.90
12053;DHT22;6087;48.982;12.064;2023-08-01T12:10:38;17.00;99.90
12053;DHT22;6087;48.982;12.064;2023-08-01T12:13:05;17.00;99.90
12053;DHT22;6087;48.982;12.064;2023-08-01T12:15:33;16.90;99.90
12053;DHT22;6087;48.982;12.064;2023-08-01T12:18:00;16.90;99.90
12053;DHT22;6087;48.982;12.064;2023-08-01T12:20:27;16.90;99.90
12053;DHT22;6087;48.982;12.064;2023-08-01T12:22:54;16.90;99.90
12053;DHT22;6087;48.982;12.064;2023-08-01T12:25:21;16.90;99.90
12053;DHT22;6087;48.982;12.064;2023-08-01T12:27:47;16.90;99.90
12053;DHT22;6087;48.982;12.064;2023-08-01T12:30:15;16.90;99.90
12053;DHT22;6087;48.982;12.064;2023-08-01T12:32:43;17.00;99.90
12053;DHT22;6087;48.982;12.064;2023-08-01T12:35:10;16.90;99.90
12053;DHT22;6087;48.982;12.064;2023-08-01T12:37:37;16.90;99.90
12053;DHT22;6087;48.982;12.064;2023-08-01T12:40:06;17.00;99.90
12053;DHT22;6087;48.982;12.064;2023-08-01T12:42:33;17.10;99.90
12053;DHT22;6087;48.982;12.064;2023-08-01T12:45:02;17.10;99.90
12053;DHT22;6087;48.982;12.064;2023-08-01T12:47:32;17.10;99.90
12053;DHT22;6087;48.982;12.064;2023-08-01T12:50:01;17.10;99.90
12053;DHT22;6087;48.982;12.064;2023-08-01T12:52:28;17.10;99.90
12053;DHT22;6087;48.982;12.064;2023-08-01T12:54:55;17.20;99.90
12053;DHT22;6087;48.982;12.064;2023-08-01T12:57:22;17.30;99.90
12053;DHT22;6087;48.982;12.064;2023-08-01T12:59:49;17.30;99.90
12053;DHT22;6087;48.982;12.064;2023-08-01T13:02:16;17.30;99.90
12053;DHT22;6087;48.982;12.064;2023-08-01T13:04:43;17.40;99.90
12053;DHT22;6087;48.982;12.064;2023-08-01T13:07:11;17.40;99.90
12053;DHT22;6087;48.982;12.064;2023-08-01T13:09:39;17.40;99.90
12053;DHT22;6087;48.982;12.064;2023-08-01T13:12:07;17.40;99.90
12053;DHT22;6087;48.982;12.064;2023-08-01T13:14:34;17.40;99.90
12053;DHT22;6087;48.982;12.064;2023-08-01T13:17:01;17.50;99.90
12053;DHT22;6087;48.982;12.064;2023-08-01T13:19:28;17.50;99.90
12053;DHT22;6087;48.982;12.064;2023-08-01T13:21:55;17.50;99.90
12053;DHT22;6087;48.982;12.064;2023-08-01T13:24:24;17.70;99.90
12053;DHT22;6087;48.982;12.064;2023-08-01T13:26:51;17.90;99.90
12053;DHT22;6087;48.982;12.064;2023-08-01T13:29:18;17.90;99.90
12053;DHT22;6087;48.982;12.064;2023-08-01T13:31:45;18.20;99.90
12053;DHT22;6087;48.982;12.064;2023-08-01T13:34:12;18.50;99.90
12053;DHT22;6087;48.982;12.064;2023-08-01T13:36:39;18.60;99.90
12053;DHT22;6087;48.982;12.064;2023-08-01T13:39:05;18.80;99.90
12053;DHT22;6087;48.982;12.064;2023-08-01T13:41:34;18.70;99.90
12053;DHT22;6087;48.982;12.064;2023-08-01T13:44:01;18.60;99.90
12053;DHT22;6087;48.982;12.064;2023-08-01T13:46:28;18.60;98.00
12053;DHT22;6087;48.982;12.064;2023-08-01T13:48:55;18.60;99.90
12053;DHT22;6087;48.982;12.064;2023-08-01T13:51:23;18.60;99.90
12053;DHT22;6087;48.982;12.064;2023-08-01T13:53:50;18.70;99.90
12053;DHT22;6087;48.982;12.064;2023-08-01T13:56:17;18.70;93.70
12053;DHT22;6087;48.982;12.064;2023-08-01T13:58:45;18.60;94.90
12053;DHT22;6087;48.982;12.064;2023-08-01T14:01:12;18.70;94.40
12053;DHT22;6087;48.982;12.064;2023-08-01T14:03:39;18.60;96.40
12053;DHT22;6087;48.982;12.064;2023-08-01T14:06:07;18.60;98.20
12053;DHT22;6087;48.982;12.064;2023-08-01T14:08:35;18.70;96.40
12053;DHT22;6087;48.982;12.064;2023-08-01T14:11:03;18.70;94.30
12053;DHT22;6087;48.982;12.064;2023-08-01T14:13:30;18.70;95.10
12053;DHT22;6087;48.982;12.064;2023-08-01T14:15:59;18.90;96.10
12053;DHT22;6087;48.982;12.064;2023-08-01T14:18:27;19.00;97.70
12053;DHT22;6087;48.982;12.064;2023-08-01T14:20:54;19.10;93.40
12053;DHT22;6087;48.982;12.064;2023-08-01T14:23:22;19.30;92.90
12053;DHT22;6087;48.982;12.064;2023-08-01T14:25:48;19.30;82.40
12053;DHT22;6087;48.982;12.064;2023-08-01T14:28:15;19.40;82.00
12053;DHT22;6087;48.982;12.064;2023-08-01T14:30:42;19.40;81.30
12053;DHT22;6087;48.982;12.064;2023-08-01T14:33:10;19.60;80.10
12053;DHT22;6087;48.982;12.064;2023-08-01T14:35:38;19.60;70.30
12053;DHT22;6087;48.982;12.064;2023-08-01T14:38:05;19.60;68.80
12053;DHT22;6087;48.982;12.064;2023-08-01T14:40:33;19.70;71.00
12053;DHT22;6087;48.982;12.064;2023-08-01T14:43:01;19.80;66.70
12053;DHT22;6087;48.982;12.064;2023-08-01T14:45:28;19.80;61.50
12053;DHT22;6087;48.982;12.064;2023-08-01T14:47:55;19.80;63.40
12053;DHT22;6087;48.982;12.064;2023-08-01T14:50:23;19.90;62.20
12053;DHT22;6087;48.982;12.064;2023-08-01T14:52:50;19.90;59.80
12053;DHT22;6087;48.982;12.064;2023-08-01T14:55:18;20.00;59.70
12053;DHT22;6087;48.982;12.064;2023-08-01T14:57:45;20.10;58.30
12053;DHT22;6087;48.982;12.064;2023-08-01T15:00:13;20.20;57.50
12053;DHT22;6087;48.982;12.064;2023-08-01T15:02:40;20.10;54.90
12053;DHT22;6087;48.982;12.064;2023-08-01T15:05:07;20.10;55.80
12053;DHT22;6087;48.982;12.064;2023-08-01T15:07:36;20.20;52.80
12053;DHT22;6087;48.982;12.064;2023-08-01T15:10:03;20.30;53.10
12053;DHT22;6087;48.982;12.064;2023-08-01T15:12:30;20.30;50.30
12053;DHT22;6087;48.982;12.064;2023-08-01T15:14:57;20.20;43.60
12053;DHT22;6087;48.982;12.064;2023-08-01T15:17:24;20.20;43.70
12053;DHT22;6087;48.982;12.064;2023-08-01T15:19:51;20.20;41.20
12053;DHT22;6087;48.982;12.064;2023-08-01T15:22:19;20.20;42.80
12053;DHT22;6087;48.982;12.064;2023-08-01T15:24:47;20.30;39.50
12053;DHT22;6087;48.982;12.064;2023-08-01T15:27:14;20.20;40.20
12053;DHT22;6087;48.982;12.064;2023-08-01T15:29:44;20.20;41.10
12053;DHT22;6087;48.982;12.064;2023-08-01T15:32:11;20.30;37.80
12053;DHT22;6087;48.982;12.064;2023-08-01T15:34:38;20.10;38.00